Time;durP1;ratioP1;P1;durP2;ratioP2;P2;SDS_P1;SDS_P2;PMS_P1;PMS_P2;Temp;Humidity;BMP_temperature;BMP_pressure;BME280_temperature;BME280_humidity;BME280_pressure;Samples;Min_cycle;Max_cycle;Signal;HPM_P1;HPM_P2
2023/01/08 00:01:42;;;;;;;4.18;2.90;;;;;;;8.96;99.48;100283.34;5054767;28;20402;-57
2023/01/08 00:04:07;;;;;;;5.40;3.35;;;;;;;8.95;99.41;100284.31;5053989;28;20025;-57
2023/01/08 00:06:32;;;;;;;5.00;3.25;;;;;;;8.94;99.39;100282.59;5054833;28;20108;-57
2023/01/08 00:08:58;;;;;;;5.93;3.45;;;;;;;8.92;99.42;100289.00;5036731;28;20024;-57
2023/01/08 00:11:23;;;;;;;7.18;3.38;;;;;;;8.92;99.63;100296.94;5042514;28;20064;-57
2023/01/08 00:13:49;;;;;;;3.40;3.00;;;;;;;8.91;99.67;100296.13;5060406;28;20053;-58
2023/01/08 00:16:16;;;;;;;7.35;3.10;;;;;;;8.91;99.77;100298.75;5048337;28;20032;-57
2023/01/08 00:18:43;;;;;;;5.80;3.20;;;;;;;8.91;99.67;100301.41;5054234;28;20040;-55
2023/01/08 00:21:08;;;;;;;7.20;3.38;;;;;;;8.92;99.84;100289.84;5054061;28;20036;-58
2023/01/08 00:23:34;;;;;;;8.20;3.35;;;;;;;8.91;99.80;100285.53;5048714;28;20398;-58
2023/01/08 00:26:01;;;;;;;7.68;3.15;;;;;;;8.89;99.90;100287.44;5053860;28;20036;-57
2023/01/08 00:28:27;;;;;;;5.72;3.30;;;;;;;8.90;100.00;100281.19;5048304;28;20044;-57
2023/01/08 00:30:52;;;;;;;4.75;3.10;;;;;;;8.92;100.00;100279.25;5058504;28;20390;-58
2023/01/08 00:33:17;;;;;;;5.43;3.30;;;;;;;8.93;99.95;100274.81;5052238;28;20020;-56
2023/01/08 00:35:43;;;;;;;5.60;3.45;;;;;;;8.93;100.00;100265.06;5053604;28;20032;-57
2023/01/08 00:38:08;;;;;;;6.45;3.38;;;;;;;8.91;100.00;100261.69;5054434;28;20029;-57
2023/01/08 00:40:35;;;;;;;8.43;3.17;;;;;;;8.92;100.00;100258.06;5051093;28;20291;-58
2023/01/08 00:43:00;;;;;;;5.90;3.28;;;;;;;8.93;100.00;100257.09;5054039;28;20048;-57
2023/01/08 00:45:26;;;;;;;5.03;3.28;;;;;;;8.94;100.00;100252.63;5049475;28;20037;-58
2023/01/08 00:47:51;;;;;;;5.97;3.10;;;;;;;8.95;100.00;100239.28;5053578;28;20116;-58
2023/01/08 00:50:16;;;;;;;4.20;3.30;;;;;;;8.95;100.00;100241.09;5053697;28;20483;-58
2023/01/08 00:52:42;;;;;;;6.50;3.45;;;;;;;8.95;100.00;100241.09;5053025;28;20380;-58
2023/01/08 00:55:08;;;;;;;8.02;3.95;;;;;;;8.95;100.00;100231.34;5053236;28;20068;-58
2023/01/08 00:57:34;;;;;;;10.10;3.55;;;;;;;8.96;100.00;100238.31;5059173;28;20167;-57
2023/01/08 01:00:00;;;;;;;6.60;3.42;;;;;;;8.96;100.00;100235.69;5050750;28;20034;-58
2023/01/08 01:02:26;;;;;;;5.07;3.17;;;;;;;8.99;100.00;100239.88;5035561;28;20482;-57
2023/01/08 01:04:52;;;;;;;5.75;3.80;;;;;;;8.98;100.00;100227.63;5044360;28;20112;-57
2023/01/08 01:07:18;;;;;;;5.40;3.55;;;;;;;8.97;100.00;100224.09;5051907;28;20521;-58
2023/01/08 01:09:43;;;;;;;5.18;3.50;;;;;;;8.97;100.00;100224.09;5029601;28;20040;-56
2023/01/08 01:12:08;;;;;;;6.93;3.47;;;;;;;8.97;100.00;100223.25;5041672;28;20033;-54
2023/01/08 01:14:36;;;;;;;7.85;3.63;;;;;;;8.97;100.00;100221.44;5052478;28;20060;-57
2023/01/08 01:17:01;;;;;;;6.72;4.00;;;;;;;8.97;100.00;100218.81;5053217;28;20111;-55
2023/01/08 01:19:26;;;;;;;6.95;3.70;;;;;;;8.97;100.00;100216.16;5053717;28;20049;-56
2023/01/08 01:21:52;;;;;;;6.10;3.47;;;;;;;8.97;100.00;100216.16;5050722;28;20028;-56
2023/01/08 01:24:17;;;;;;;6.07;4.22;;;;;;;8.97;100.00;100221.44;5046899;28;20037;-58
2023/01/08 01:26:42;;;;;;;7.60;4.00;;;;;;;8.99;100.00;100216.91;5050060;28;20032;-56
2023/01/08 01:29:08;;;;;;;8.50;3.47;;;;;;;8.99;100.00;100216.91;5056231;28;20037;-56
2023/01/08 01:31:33;;;;;;;6.10;3.53;;;;;;;8.99;100.00;100208.09;5053489;28;20029;-55
2023/01/08 01:33:59;;;;;;;6.43;3.35;;;;;;;9.01;100.00;100217.59;5063709;28;20032;-57
2023/01/08 01:36:25;;;;;;;6.88;4.32;;;;;;;9.01;100.00;100204.38;5052170;28;20029;-56
2023/01/08 01:38:53;;;;;;;10.25;3.83;;;;;;;9.02;100.00;100213.16;5053833;28;20490;-56
2023/01/08 01:41:32;;;;;;;5.95;3.53;;;;;;;9.01;100.00;100219.38;5053747;28;20067;-56
2023/01/08 01:44:36;;;;;;;6.07;3.42;;;;;;;9.05;100.00;100219.03;5057792;28;20112;-57
2023/01/08 01:47:23;;;;;;;8.68;3.50;;;;;;;9.03;100.00;100230.72;5050799;28;20068;-56
2023/01/08 01:49:59;;;;;;;7.22;3.60;;;;;;;9.04;100.00;100233.25;5043359;28;20136;-56
2023/01/08 01:52:29;;;;;;;4.00;3.42;;;;;;;9.01;100.00;100228.22;5056053;28;20123;-56
2023/01/08 01:54:54;;;;;;;5.82;3.17;;;;;;;8.99;100.00;100243.38;5066932;28;20449;-57
2023/01/08 01:57:20;;;;;;;8.25;3.30;;;;;;;8.96;100.00;100246.28;5058833;28;20028;-57
2023/01/08 01:59:47;;;;;;;6.18;2.60;;;;;;;8.91;99.00;100243.16;5065214;28;20025;-57
2023/01/08 02:02:12;;;;;;;4.35;2.50;;;;;;;8.86;99.59;100255.91;5049192;28;20058;-56
2023/01/08 02:04:38;;;;;;;5.07;2.50;;;;;;;8.78;99.89;100253.84;5054736;28;20437;-58
2023/01/08 02:07:14;;;;;;;4.15;1.83;;;;;;;8.71;99.49;100252.66;5054585;28;20088;-58
2023/01/08 02:09:53;;;;;;;3.85;1.73;;;;;;;8.61;99.68;100236.66;5053095;28;20083;-59
2023/01/08 02:12:30;;;;;;;3.22;1.83;;;;;;;8.50;99.33;100221.59;5043887;28;20065;-58
2023/01/08 02:15:14;;;;;;;4.05;1.70;;;;;;;8.43;100.00;100225.69;5053705;28;20041;-58
2023/01/08 02:17:52;;;;;;;6.07;1.58;;;;;;;8.32;100.00;100213.25;5048171;28;20025;-58
2023/01/08 02:20:24;;;;;;;3.20;1.37;;;;;;;8.22;99.20;100200.84;5055575;28;20469;-59
2023/01/08 02:23:15;;;;;;;3.22;1.45;;;;;;;8.15;99.24;100196.03;5067983;28;20159;-57
2023/01/08 02:26:26;;;;;;;4.28;1.45;;;;;;;8.07;99.87;100200.22;5037351;28;20025;-59
2023/01/08 02:28:57;;;;;;;4.65;1.30;;;;;;;7.98;100.00;100204.44;4987175;28;20049;-58
2023/01/08 02:31:25;;;;;;;5.20;1.35;;;;;;;7.90;100.00;100207.63;5053348;28;20112;-58
2023/01/08 02:33:50;;;;;;;5.40;1.50;;;;;;;7.87;100.00;100212.31;5051558;28;20495;-58
2023/01/08 02:36:20;;;;;;;4.00;1.40;;;;;;;7.83;100.00;100208.19;5054943;28;20025;-59
2023/01/08 02:39:08;;;;;;;4.40;1.63;;;;;;;7.82;100.00;100207.38;5055294;28;20413;-57
2023/01/08 02:41:58;;;;;;;5.00;1.70;;;;;;;7.76;100.00;100206.03;5044804;28;20032;-58
2023/01/08 02:44:48;;;;;;;5.30;1.50;;;;;;;7.74;100.00;100210.63;5056603;28;20021;-57
2023/01/08 02:47:55;;;;;;;5.40;1.30;;;;;;;7.69;100.00;100207.44;5053297;28;20056;-58
2023/01/08 02:50:27;;;;;;;3.42;1.52;;;;;;;7.61;100.00;100212.50;5048764;28;20494;-58
2023/01/08 02:53:03;;;;;;;3.65;1.42;;;;;;;7.58;100.00;100210.06;5042987;28;20045;-58
2023/01/08 02:55:32;;;;;;;5.57;1.55;;;;;;;7.54;100.00;100206.81;5039228;28;20414;-58
2023/01/08 02:57:58;;;;;;;5.30;1.27;;;;;;;7.49;100.00;100193.06;5042091;28;20057;-59
2023/01/08 03:00:25;;;;;;;3.97;1.33;;;;;;;7.46;100.00;100177.47;5055316;28;20134;-59
2023/01/08 03:02:59;;;;;;;4.38;1.33;;;;;;;7.44;100.00;100192.56;5046491;28;20043;-58
2023/01/08 03:05:26;;;;;;;3.20;1.73;;;;;;;7.44;100.00;100178.53;5058122;28;20043;-59
2023/01/08 03:07:53;;;;;;;6.05;1.48;;;;;;;7.44;100.00;100184.66;5059403;28;20537;-58
2023/01/08 03:10:23;;;;;;;6.15;1.55;;;;;;;7.42;100.00;100186.56;5044930;28;20076;-58
2023/01/08 03:13:00;;;;;;;4.85;1.33;;;;;;;7.41;100.00;100185.72;5048943;28;20586;-58
2023/01/08 03:15:32;;;;;;;5.70;1.75;;;;;;;7.41;100.00;100195.44;5045730;28;20025;-57
2023/01/08 03:18:04;;;;;;;4.88;1.42;;;;;;;7.39;100.00;100181.50;5054650;28;20024;-58
2023/01/08 03:20:31;;;;;;;4.25;1.85;;;;;;;7.37;100.00;100180.78;5050231;28;20376;-57
2023/01/08 03:23:01;;;;;;;5.45;1.55;;;;;;;7.36;100.00;100179.09;5035115;28;20475;-58
2023/01/08 03:25:29;;;;;;;4.10;1.60;;;;;;;7.36;100.00;100185.22;5048440;28;20040;-58
2023/01/08 03:27:59;;;;;;;3.97;1.33;;;;;;;7.33;100.00;100172.25;5042937;28;20411;-57
2023/01/08 03:30:27;;;;;;;7.97;1.80;;;;;;;7.31;100.00;100176.81;5053879;28;20025;-58
2023/01/08 03:32:56;;;;;;;10.15;1.88;;;;;;;7.31;100.00;100178.59;5053478;28;20095;-58
2023/01/08 03:35:24;;;;;;;5.75;1.55;;;;;;;7.31;100.00;100174.16;5053835;28;20078;-58
2023/01/08 03:37:59;;;;;;;5.97;1.70;;;;;;;7.31;100.00;100168.00;5048132;28;20451;-58
2023/01/08 03:40:34;;;;;;;5.15;1.40;;;;;;;7.29;100.00;100169.94;5048899;28;20041;-57
2023/01/08 03:42:59;;;;;;;7.57;1.58;;;;;;;7.28;100.00;100178.81;5053708;28;20083;-58
2023/01/08 03:45:29;;;;;;;6.57;1.50;;;;;;;7.26;100.00;100171.03;5044576;28;20458;-57
2023/01/08 03:47:55;;;;;;;3.95;1.42;;;;;;;7.27;100.00;100175.31;5054116;28;20025;-58
2023/01/08 03:50:26;;;;;;;5.32;1.55;;;;;;;7.28;100.00;100176.16;5036481;28;20383;-56
2023/01/08 03:52:52;;;;;;;5.03;1.40;;;;;;;7.28;100.00;100162.94;5055056;28;20111;-58
2023/01/08 03:55:17;;;;;;;5.50;1.58;;;;;;;7.27;100.00;100162.13;5053784;28;20478;-57
2023/01/08 03:57:43;;;;;;;4.32;1.70;;;;;;;7.27;100.00;100162.13;5054251;28;20415;-58
2023/01/08 04:00:09;;;;;;;4.07;1.60;;;;;;;7.29;100.00;100172.56;5054913;28;20029;-58
2023/01/08 04:02:35;;;;;;;6.30;1.80;;;;;;;7.29;100.00;100164.66;5042340;28;20061;-57
2023/01/08 04:05:00;;;;;;;2.58;1.70;;;;;;;7.29;100.00;100164.66;5054784;28;20029;-57
2023/01/08 04:07:25;;;;;;;6.88;1.67;;;;;;;7.28;100.00;100161.19;5054741;28;20016;-58
2023/01/08 04:09:50;;;;;;;6.60;1.88;;;;;;;7.28;100.00;100152.38;5053160;28;20387;-58
2023/01/08 04:12:16;;;;;;;7.55;1.80;;;;;;;7.28;100.00;100152.38;5054019;28;20028;-58
2023/01/08 04:14:41;;;;;;;6.60;2.08;;;;;;;7.27;100.00;100127.78;5054552;28;20021;-57
2023/01/08 04:17:10;;;;;;;6.78;1.80;;;;;;;7.22;100.00;100130.75;5053183;28;20029;-58
2023/01/08 04:19:35;;;;;;;6.35;1.98;;;;;;;7.23;100.00;100136.91;5054410;28;20029;-57
2023/01/08 04:22:01;;;;;;;5.30;1.75;;;;;;;7.22;100.00;100157.16;5053331;28;20545;-58
2023/01/08 04:24:26;;;;;;;4.53;1.67;;;;;;;7.22;100.00;100151.88;5044299;28;20057;-58
2023/01/08 04:26:52;;;;;;;5.47;2.42;;;;;;;7.23;100.00;100139.53;5054232;28;20042;-56
2023/01/08 04:29:17;;;;;;;4.35;2.45;;;;;;;7.25;100.00;100148.19;5053541;28;20021;-56
2023/01/08 04:31:42;;;;;;;6.97;2.00;;;;;;;7.23;100.00;100132.47;5055930;28;20028;-56
2023/01/08 04:34:09;;;;;;;8.48;2.33;;;;;;;7.25;100.00;100128.88;5060990;28;20025;-55
2023/01/08 04:36:34;;;;;;;5.90;2.20;;;;;;;7.23;100.00;100132.47;5050571;28;20032;-57
2023/01/08 04:38:59;;;;;;;4.72;2.08;;;;;;;7.23;100.00;100135.09;5056504;28;20040;-55
2023/01/08 04:41:25;;;;;;;4.32;2.08;;;;;;;7.23;100.00;100132.47;5056409;28;20104;-54
2023/01/08 04:43:50;;;;;;;5.38;1.90;;;;;;;7.25;100.00;100128.88;5047944;28;20104;-53
2023/01/08 04:46:15;;;;;;;4.85;1.83;;;;;;;7.25;100.00;100123.59;5055204;28;20021;-56
2023/01/08 04:48:41;;;;;;;6.43;1.95;;;;;;;7.24;100.00;100125.38;5057614;28;20025;-55
2023/01/08 04:51:06;;;;;;;5.35;1.83;;;;;;;7.26;100.00;100127.88;5056947;28;20047;-56
2023/01/08 04:53:35;;;;;;;6.22;1.92;;;;;;;7.23;100.00;100128.97;5056402;28;20383;-57
2023/01/08 04:56:06;;;;;;;5.10;1.92;;;;;;;7.24;100.00;100133.28;5056760;28;20021;-56
2023/01/08 04:58:33;;;;;;;6.65;1.80;;;;;;;7.21;100.00;100139.66;5065063;28;20067;-54
2023/01/08 05:00:58;;;;;;;4.88;1.80;;;;;;;7.22;100.00;100137.84;5053643;28;20410;-56
2023/01/08 05:03:24;;;;;;;4.55;1.95;;;;;;;7.21;100.00;100134.38;5045630;28;20033;-57
2023/01/08 05:05:49;;;;;;;6.47;2.00;;;;;;;7.23;100.00;100142.19;5055276;28;20044;-56
2023/01/08 05:08:15;;;;;;;4.25;1.90;;;;;;;7.22;100.00;100151.06;5063664;28;20467;-57
2023/01/08 05:10:40;;;;;;;3.90;1.63;;;;;;;7.21;100.00;100128.22;5044170;28;20016;-58
2023/01/08 05:13:06;;;;;;;4.93;1.83;;;;;;;7.21;100.00;100138.78;5066260;28;20075;-56
2023/01/08 05:15:31;;;;;;;3.63;1.50;;;;;;;7.20;100.00;100137.13;5048086;28;20382;-56
2023/01/08 05:18:01;;;;;;;5.13;1.50;;;;;;;7.21;100.00;100131.72;5058628;28;20029;-55
2023/01/08 05:20:27;;;;;;;3.60;1.60;;;;;;;7.20;100.00;100135.31;5062924;28;20025;-57
2023/01/08 05:22:53;;;;;;;2.83;1.60;;;;;;;7.21;100.00;100131.72;5058316;28;20028;-55
2023/01/08 05:25:19;;;;;;;4.38;1.67;;;;;;;7.19;100.00;100120.44;5049832;28;20360;-57
2023/01/08 05:27:45;;;;;;;2.47;1.35;;;;;;;7.19;100.00;100123.09;5057430;28;20032;-58
2023/01/08 05:30:11;;;;;;;5.05;1.73;;;;;;;7.18;100.00;100124.03;5055495;28;20041;-58
2023/01/08 05:32:37;;;;;;;2.63;1.30;;;;;;;7.18;100.00;100115.28;5057379;28;20029;-57
2023/01/08 05:35:02;;;;;;;4.00;1.25;;;;;;;7.18;100.00;100105.53;5057176;28;20040;-57
2023/01/08 05:37:28;;;;;;;3.80;1.70;;;;;;;7.21;100.00;100110.59;5058231;28;20028;-57
2023/01/08 05:39:53;;;;;;;4.78;1.60;;;;;;;7.17;100.00;100111.78;5055220;28;20063;-58
2023/01/08 05:42:19;;;;;;;6.03;1.60;;;;;;;7.18;100.00;100112.63;5059187;28;20491;-57
2023/01/08 05:44:44;;;;;;;3.78;1.67;;;;;;;7.17;100.00;100116.22;5057279;28;20029;-58
2023/01/08 05:47:09;;;;;;;3.65;1.38;;;;;;;7.15;99.79;100115.50;5054488;28;20028;-56
2023/01/08 05:49:34;;;;;;;5.80;1.83;;;;;;;7.13;98.82;100110.31;5057465;28;20028;-57
2023/01/08 05:52:00;;;;;;;5.65;1.55;;;;;;;7.09;99.69;100108.84;5056677;28;20023;-57
2023/01/08 05:54:25;;;;;;;6.35;1.55;;;;;;;7.06;99.14;100108.25;5039324;28;20379;-57
2023/01/08 05:56:50;;;;;;;4.55;1.80;;;;;;;7.04;99.34;100111.00;5065147;28;20490;-58
2023/01/08 05:59:16;;;;;;;9.70;2.15;;;;;;;7.00;99.30;100115.66;5049326;28;20036;-58
2023/01/08 06:01:41;;;;;;;7.38;1.90;;;;;;;6.96;98.86;100123.91;5057218;28;20032;-57
2023/01/08 06:04:07;;;;;;;7.80;1.65;;;;;;;6.92;98.75;100122.47;5056531;28;20029;-56
2023/01/08 06:06:32;;;;;;;3.55;1.73;;;;;;;6.92;98.82;100133.03;5057534;28;20025;-57
2023/01/08 06:08:57;;;;;;;7.80;1.80;;;;;;;6.87;98.78;100132.53;5068134;28;20074;-57
2023/01/08 06:11:23;;;;;;;5.90;1.55;;;;;;;6.82;98.96;100143.41;5046528;28;20033;-56
2023/01/08 06:13:48;;;;;;;4.53;1.48;;;;;;;6.79;99.32;100144.44;5053735;28;20108;-57
2023/01/08 06:16:13;;;;;;;7.00;1.80;;;;;;;6.74;99.26;100140.47;5058908;28;20020;-58
2023/01/08 06:18:39;;;;;;;5.78;1.70;;;;;;;6.71;99.36;100138.91;5056790;28;20032;-56
2023/01/08 06:21:05;;;;;;;6.63;1.73;;;;;;;6.66;99.70;100138.38;5053603;28;20371;-56
2023/01/08 06:23:31;;;;;;;6.03;1.98;;;;;;;6.62;99.48;100140.38;5056178;28;20105;-57
2023/01/08 06:25:59;;;;;;;4.93;1.52;;;;;;;6.59;99.66;100145.03;5044157;28;20430;-57
2023/01/08 06:28:24;;;;;;;3.92;1.80;;;;;;;6.54;99.96;100148.00;5050372;28;20097;-56
2023/01/08 06:30:50;;;;;;;6.18;1.50;;;;;;;6.50;99.64;100146.56;5049857;28;20076;-54
2023/01/08 06:33:16;;;;;;;6.72;1.75;;;;;;;6.47;99.84;100154.69;5056410;28;20033;-58
2023/01/08 06:35:42;;;;;;;4.22;1.60;;;;;;;6.41;99.58;100153.31;5056333;28;20064;-56
2023/01/08 06:38:07;;;;;;;4.63;1.80;;;;;;;6.40;99.83;100162.19;5055247;28;20059;-58
2023/01/08 06:40:33;;;;;;;6.47;1.90;;;;;;;6.37;99.10;100157.13;5050518;28;20087;-57
2023/01/08 06:43:02;;;;;;;6.97;1.80;;;;;;;6.33;99.28;100163.56;5051474;28;20047;-58
2023/01/08 06:45:28;;;;;;;5.95;1.88;;;;;;;6.29;99.05;100162.94;5055167;28;20033;-57
2023/01/08 06:47:54;;;;;;;8.75;1.90;;;;;;;6.26;98.86;100168.44;5045206;28;20032;-57
2023/01/08 06:50:19;;;;;;;6.97;2.00;;;;;;;6.23;98.84;100167.81;5055810;28;20029;-58
2023/01/08 06:52:52;;;;;;;9.23;2.20;;;;;;;6.21;99.02;100167.03;5038269;28;20025;-57
2023/01/08 06:55:18;;;;;;;2.92;1.63;;;;;;;6.15;99.10;100170.97;5051212;28;20479;-58
2023/01/08 06:57:43;;;;;;;8.43;1.83;;;;;;;6.13;98.98;100172.00;5052994;28;20079;-59
2023/01/08 07:00:09;;;;;;;8.45;1.90;;;;;;;6.08;99.27;100165.25;5056539;28;20020;-58
2023/01/08 07:02:34;;;;;;;11.10;2.05;;;;;;;6.06;99.07;100167.16;5046854;28;20032;-58
2023/01/08 07:05:00;;;;;;;9.35;2.50;;;;;;;6.06;99.32;100166.31;5052274;28;20387;-59
2023/01/08 07:07:25;;;;;;;9.18;2.17;;;;;;;6.04;99.05;100170.84;5055305;28;20040;-56
2023/01/08 07:09:50;;;;;;;9.35;2.38;;;;;;;6.02;99.17;100165.69;5050579;28;20353;-57
2023/01/08 07:12:16;;;;;;;7.47;2.03;;;;;;;6.00;99.18;100158.84;5059563;28;20025;-56
2023/01/08 07:14:41;;;;;;;10.10;2.22;;;;;;;5.97;99.39;100154.59;5059780;28;20052;-56
2023/01/08 07:17:06;;;;;;;8.70;2.30;;;;;;;5.98;99.13;100151.03;5059151;28;20017;-57
2023/01/08 07:19:33;;;;;;;10.70;2.95;;;;;;;5.97;98.75;100157.25;5051322;28;20040;-57
2023/01/08 07:21:58;;;;;;;12.45;2.88;;;;;;;5.96;98.82;100154.69;5056571;28;20544;-56
2023/01/08 07:24:24;;;;;;;8.95;2.50;;;;;;;5.93;98.69;100153.94;5052122;28;20062;-57
2023/01/08 07:26:55;;;;;;;10.80;2.55;;;;;;;5.95;98.40;100159.13;5056900;28;20059;-55
2023/01/08 07:29:21;;;;;;;11.05;2.22;;;;;;;5.92;98.52;100162.78;5042841;28;20097;-58
2023/01/08 07:31:47;;;;;;;10.18;2.47;;;;;;;5.91;98.66;100157.63;5048710;28;20020;-57
2023/01/08 07:34:12;;;;;;;8.60;2.17;;;;;;;5.90;98.44;100161.22;5054095;28;20045;-57
2023/01/08 07:36:37;;;;;;;11.15;2.58;;;;;;;5.90;98.96;100158.59;5056387;28;20033;-56
2023/01/08 07:39:03;;;;;;;9.32;3.08;;;;;;;5.87;98.28;100158.78;5050992;28;20037;-56
2023/01/08 07:41:28;;;;;;;9.80;2.38;;;;;;;5.85;98.33;100161.53;5048587;28;20060;-56
2023/01/08 07:43:53;;;;;;;9.80;2.63;;;;;;;5.83;98.36;100162.56;5041362;28;20124;-57
2023/01/08 07:46:19;;;;;;;8.05;2.25;;;;;;;5.81;98.42;100167.09;5049292;28;20024;-57
2023/01/08 07:48:44;;;;;;;9.80;3.55;;;;;;;5.80;98.13;100158.38;5043155;28;20037;-57
2023/01/08 07:51:10;;;;;;;7.80;2.30;;;;;;;5.78;98.59;100156.75;5051099;28;20033;-56
2023/01/08 07:53:36;;;;;;;8.00;2.33;;;;;;;5.78;98.89;100157.63;5048346;28;20033;-57
2023/01/08 07:56:07;;;;;;;11.45;2.60;;;;;;;5.75;98.70;100156.03;5046028;28;20033;-56
2023/01/08 07:58:33;;;;;;;12.98;2.50;;;;;;;5.73;99.13;100152.66;5048322;28;20045;-58
2023/01/08 08:00:59;;;;;;;9.40;2.10;;;;;;;5.74;99.41;100156.13;5049813;28;20052;-55
2023/01/08 08:03:25;;;;;;;13.27;3.17;;;;;;;5.73;99.50;100157.94;5044701;28;20495;-56
2023/01/08 08:05:51;;;;;;;7.90;2.60;;;;;;;5.73;99.67;100150.03;5049396;28;20033;-56
2023/01/08 08:08:16;;;;;;;11.95;2.60;;;;;;;5.73;99.91;100133.38;5048935;28;20025;-56
2023/01/08 08:10:42;;;;;;;8.70;1.98;;;;;;;5.75;100.00;100136.75;5048072;28;20044;-57
2023/01/08 08:13:08;;;;;;;9.10;2.20;;;;;;;5.77;100.00;100121.66;5041966;28;20491;-57
2023/01/08 08:15:34;;;;;;;12.80;2.50;;;;;;;5.80;100.00;100121.47;5047902;28;20453;-57
2023/01/08 08:18:01;;;;;;;12.27;2.67;;;;;;;5.82;100.00;100122.19;5046016;28;20124;-54
2023/01/08 08:20:26;;;;;;;8.73;2.05;;;;;;;5.87;100.00;100103.44;5047001;28;20072;-53
2023/01/08 08:22:59;;;;;;;10.43;2.65;;;;;;;5.91;100.00;100118.09;5044148;28;20060;-56
2023/01/08 08:25:24;;;;;;;10.60;2.38;;;;;;;5.93;100.00;100101.22;5045573;28;20056;-55
2023/01/08 08:27:50;;;;;;;7.47;2.20;;;;;;;5.97;100.00;100104.53;5044744;28;20399;-55
2023/01/08 08:30:15;;;;;;;14.10;2.60;;;;;;;6.00;100.00;100114.03;5047101;28;20091;-56
2023/01/08 08:32:40;;;;;;;16.13;2.40;;;;;;;6.02;100.00;100110.31;5046248;28;20430;-55
2023/01/08 08:35:06;;;;;;;5.22;2.55;;;;;;;6.05;100.00;100110.09;5039681;28;20044;-55
2023/01/08 08:37:31;;;;;;;10.52;2.13;;;;;;;6.06;100.00;100110.94;5037473;28;20022;-55
2023/01/08 08:39:56;;;;;;;7.68;2.00;;;;;;;6.07;100.00;100118.75;5041240;28;20033;-53
2023/01/08 08:42:22;;;;;;;10.88;2.40;;;;;;;6.08;100.00;100117.81;5042962;28;20044;-55
2023/01/08 08:44:47;;;;;;;13.93;2.38;;;;;;;6.09;100.00;100123.91;5041717;28;20048;-55
2023/01/08 08:47:14;;;;;;;10.13;2.58;;;;;;;6.07;100.00;100108.19;5040586;28;20036;-54
2023/01/08 08:49:39;;;;;;;9.75;2.25;;;;;;;6.10;100.00;100115.06;5043673;28;20045;-56
2023/01/08 08:52:04;;;;;;;12.23;2.38;;;;;;;6.10;100.00;100115.91;5041267;28;20112;-55
2023/01/08 08:54:30;;;;;;;8.18;2.45;;;;;;;6.09;100.00;100106.28;5044859;28;20037;-55
2023/01/08 08:56:55;;;;;;;11.70;2.65;;;;;;;6.10;100.00;100108.00;5041857;28;20128;-53
2023/01/08 08:59:21;;;;;;;8.93;2.53;;;;;;;6.13;100.00;100108.72;5040986;28;20046;-55
2023/01/08 09:01:46;;;;;;;10.80;2.30;;;;;;;6.10;100.00;100105.34;5040098;28;20030;-56
2023/01/08 09:04:11;;;;;;;7.75;2.47;;;;;;;6.10;100.00;100102.72;5038940;28;20045;-55
2023/01/08 09:06:37;;;;;;;11.77;2.58;;;;;;;6.08;100.00;100102.00;5039414;28;20438;-53
2023/01/08 09:09:02;;;;;;;9.82;2.17;;;;;;;6.06;100.00;100101.25;5047263;28;20060;-56
2023/01/08 09:11:28;;;;;;;7.07;2.03;;;;;;;6.04;100.00;100092.59;5040878;28;20059;-55
2023/01/08 09:13:53;;;;;;;11.13;2.47;;;;;;;6.03;100.00;100096.19;5049361;28;20044;-54
2023/01/08 09:16:18;;;;;;;9.55;2.42;;;;;;;6.01;100.00;100091.97;5053948;28;20049;-55
2023/01/08 09:18:44;;;;;;;11.10;2.47;;;;;;;6.00;100.00;100098.22;5046971;28;20033;-56
2023/01/08 09:21:10;;;;;;;9.43;2.25;;;;;;;5.98;100.00;100097.44;5048537;28;20021;-56
2023/01/08 09:23:35;;;;;;;10.45;2.63;;;;;;;5.98;100.00;100092.19;5049576;28;20037;-56
2023/01/08 09:26:03;;;;;;;10.25;2.38;;;;;;;5.97;100.00;100091.34;5050345;28;20044;-55
2023/01/08 09:28:29;;;;;;;11.70;2.65;;;;;;;5.98;100.00;100081.63;5034211;28;20025;-55
2023/01/08 09:30:54;;;;;;;9.43;2.10;;;;;;;6.01;100.00;100086.69;5041549;28;20471;-57
2023/01/08 09:33:19;;;;;;;10.30;2.60;;;;;;;6.00;100.00;100091.13;5041895;28;20033;-57
2023/01/08 09:35:45;;;;;;;12.00;2.28;;;;;;;6.01;100.00;100078.78;5038644;28;20387;-59
2023/01/08 09:38:10;;;;;;;10.45;2.72;;;;;;;6.01;100.00;100077.00;5040679;28;20029;-54
2023/01/08 09:41:01;;;;;;;8.63;2.60;;;;;;;6.05;100.00;100075.00;5040078;28;20064;-56
2023/01/08 09:43:30;;;;;;;6.95;2.42;;;;;;;6.06;100.00;100069.63;5037485;28;20048;-57
2023/01/08 09:45:59;;;;;;;7.82;2.80;;;;;;;6.09;100.00;100063.28;5041627;28;20442;-56
2023/01/08 09:48:29;;;;;;;6.70;2.15;;;;;;;6.09;100.00;100061.47;5041775;28;20025;-57
2023/01/08 09:50:55;;;;;;;8.00;2.65;;;;;;;6.11;100.00;100064.88;5023448;28;20557;-56
2023/01/08 09:53:20;;;;;;;10.45;3.17;;;;;;;6.13;100.00;100059.50;5043540;28;20782;-57
2023/01/08 09:55:54;;;;;;;10.48;2.70;;;;;;;6.16;100.00;100058.41;5050237;28;20036;-57
2023/01/08 09:58:31;;;;;;;10.73;2.60;;;;;;;6.21;100.00;100064.19;5046939;28;21154;-55
2023/01/08 10:00:59;;;;;;;10.10;2.55;;;;;;;6.22;100.00;100064.09;5045825;28;20418;-57
2023/01/08 10:03:29;;;;;;;10.73;2.72;;;;;;;6.23;100.00;100049.97;5049641;28;20487;-54
2023/01/08 10:05:54;;;;;;;7.32;2.70;;;;;;;6.25;100.00;100052.50;5053089;28;20069;-55
2023/01/08 10:08:19;;;;;;;8.75;2.75;;;;;;;6.27;100.00;100054.06;5045004;28;20611;-56
2023/01/08 10:10:45;;;;;;;11.20;3.20;;;;;;;6.30;100.00;100050.38;5045594;28;20515;-53
2023/01/08 10:13:12;;;;;;;9.95;2.75;;;;;;;6.35;100.00;100047.41;5039219;28;20046;-58
2023/01/08 10:15:39;;;;;;;9.10;2.45;;;;;;;6.38;100.00;100045.41;5044366;28;20044;-55
2023/01/08 10:18:09;;;;;;;9.68;2.53;;;;;;;6.40;100.00;100048.75;5044526;28;20021;-55
2023/01/08 10:20:35;;;;;;;5.22;2.50;;;;;;;6.44;100.00;100050.22;5039506;28;20124;-55
2023/01/08 10:23:16;;;;;;;9.60;2.50;;;;;;;6.49;100.00;100041.97;5045028;28;20091;-56
2023/01/08 10:25:55;;;;;;;6.70;2.05;;;;;;;6.56;100.00;100037.09;5039571;28;20025;-57
2023/01/08 10:28:23;;;;;;;5.13;2.03;;;;;;;6.61;100.00;100033.19;5040046;28;20017;-56
2023/01/08 10:30:51;;;;;;;4.80;1.73;;;;;;;6.66;100.00;100028.41;5040333;28;20045;-54
2023/01/08 10:33:37;;;;;;;7.65;2.00;;;;;;;6.76;100.00;100033.84;5052596;28;20028;-60
2023/01/08 10:36:07;;;;;;;6.28;1.95;;;;;;;6.87;100.00;100035.69;5036071;28;20060;-57
2023/01/08 10:38:41;;;;;;;7.28;1.92;;;;;;;6.93;100.00;100029.09;5041124;28;20021;-55
2023/01/08 10:41:12;;;;;;;5.90;1.63;;;;;;;7.03;100.00;100020.38;5048711;28;20036;-52
2023/01/08 10:44:02;;;;;;;5.53;1.70;;;;;;;7.17;100.00;100013.22;5039490;28;20021;-53
2023/01/08 10:46:57;;;;;;;4.95;1.45;;;;;;;7.31;100.00;100017.44;5039348;28;20065;-55
2023/01/08 10:49:30;;;;;;;3.75;1.65;;;;;;;7.45;100.00;100008.47;5044446;28;20033;-55
2023/01/08 10:51:57;;;;;;;4.32;1.55;;;;;;;7.61;99.48;100014.28;5041610;28;20055;-58
2023/01/08 10:54:29;;;;;;;3.22;1.65;;;;;;;7.73;98.81;100002.72;5026237;28;20033;-55
2023/01/08 10:56:55;;;;;;;2.72;1.50;;;;;;;7.85;98.70;99995.63;5041002;28;20077;-54
2023/01/08 10:59:22;;;;;;;2.92;1.20;;;;;;;7.97;97.21;99991.19;5049525;28;20029;-51
2023/01/08 11:01:54;;;;;;;4.43;1.40;;;;;;;8.08;97.09;99988.53;5050885;28;20017;-53
2023/01/08 11:04:31;;;;;;;2.13;1.05;;;;;;;8.20;95.89;99994.63;5043386;28;20604;-53
2023/01/08 11:07:02;;;;;;;3.13;1.20;;;;;;;8.30;95.07;99984.16;5039925;28;20040;-57
2023/01/08 11:09:40;;;;;;;1.92;0.93;;;;;;;8.42;94.92;99984.97;5057363;28;20088;-57
2023/01/08 11:12:29;;;;;;;2.10;1.08;;;;;;;8.53;94.80;99979.69;5057846;28;20036;-54
2023/01/08 11:14:55;;;;;;;;;;;;;;;8.63;96.84;99985.06;5053140;28;20084;-54
2023/01/08 11:17:24;;;;;;;1.95;1.10;;;;;;;8.73;93.14;99971.88;5055014;28;19974;-52
2023/01/08 11:19:50;;;;;;;;;;;;;;;8.81;95.64;99970.28;5056024;28;20548;-54
2023/01/08 11:22:21;;;;;;;0.60;0.60;;;;;;;8.87;90.59;99960.97;5059704;28;19913;-53
2023/01/08 11:24:48;;;;;;;1.83;1.00;;;;;;;8.93;89.46;99963.13;5059315;28;20044;-56
2023/01/08 11:27:17;;;;;;;3.10;1.05;;;;;;;8.98;90.15;99960.09;5056466;28;20029;-56
2023/01/08 11:29:45;;;;;;;;;;;;;;;9.05;92.71;99953.31;5051951;28;20032;-52
2023/01/08 11:32:22;;;;;;;1.80;0.80;;;;;;;9.09;90.03;99946.75;5044037;28;19917;-54
2023/01/08 11:34:58;;;;;;;0.85;0.85;;;;;;;9.14;88.41;99944.56;5044815;28;20044;-55